createdAt,value
2022-11-25T06:36:54.955Z,62.59
2022-11-25T06:39:25.871Z,64.01
2022-11-25T06:41:56.602Z,61.79
2022-11-25T06:44:27.286Z,59.95
2022-11-25T06:46:58.323Z,60.55
2022-11-25T06:49:29.478Z,66.38
2022-11-25T06:52:00.214Z,66.84
2022-11-25T06:54:30.812Z,64.77
2022-11-25T06:57:01.674Z,61.40
2022-11-25T06:59:33.419Z,63.61
2022-11-25T07:02:04.368Z,63.04
2022-11-25T07:04:36.395Z,62.97
2022-11-25T07:07:07.679Z,64.00
2022-11-25T07:09:38.521Z,64.75
2022-11-25T07:12:10.018Z,62.52
2022-11-25T07:14:40.754Z,62.09
2022-11-25T07:17:12.503Z,63.26
2022-11-25T07:19:43.050Z,64.91
2022-11-25T07:22:13.891Z,65.45
2022-11-25T07:24:44.555Z,62.34
2022-11-25T07:27:15.455Z,62.41
2022-11-25T07:30:18.772Z,63.10
2022-11-25T07:32:36.893Z,63.16
2022-11-25T07:35:09.406Z,63.88
2022-11-25T07:37:40.671Z,66.54
2022-11-25T07:40:12.306Z,67.07
2022-11-25T07:42:43.403Z,67.06
2022-11-25T07:45:13.979Z,65.02
2022-11-25T07:47:46.629Z,64.97
2022-11-25T07:50:17.343Z,62.57
2022-11-25T07:52:48.288Z,59.55
2022-11-25T07:55:18.958Z,63.95
2022-11-25T07:57:49.799Z,67.23
2022-11-25T08:00:21.349Z,65.20
2022-11-25T08:02:53.363Z,63.94
2022-11-25T08:05:24.210Z,63.75
2022-11-25T08:07:55.033Z,64.50
2022-11-25T08:10:25.670Z,65.13
2022-11-25T08:12:56.349Z,66.02
2022-11-25T08:15:26.854Z,63.30
2022-11-25T08:17:57.631Z,60.90
2022-11-25T08:20:29.125Z,60.97
2022-11-25T08:23:00.002Z,64.74
2022-11-25T08:25:31.918Z,67.05
2022-11-25T08:28:02.953Z,67.78
2022-11-25T08:30:33.482Z,64.98
2022-11-25T08:33:05.133Z,65.16
2022-11-25T08:35:38.568Z,65.47
2022-11-25T08:38:08.028Z,67.49
2022-11-25T08:40:39.120Z,68.05
2022-11-25T08:43:09.704Z,66.33
2022-11-25T08:45:41.875Z,66.01
2022-11-25T08:48:12.404Z,65.14
2022-11-25T08:50:43.560Z,65.21
2022-11-25T08:53:14.229Z,65.35
2022-11-25T08:55:44.939Z,64.89
2022-11-25T08:58:16.905Z,63.66
2022-11-25T09:00:47.456Z,60.03
2022-11-25T09:03:18.115Z,59.07
2022-11-25T09:05:48.915Z,64.16
2022-11-25T09:08:19.659Z,67.49
2022-11-25T09:10:50.364Z,66.15
2022-11-25T09:13:21.285Z,66.07
2022-11-25T09:15:52.143Z,65.09
2022-11-25T09:18:26.887Z,62.74
2022-11-25T09:20:58.263Z,62.92
2022-11-25T09:23:31.579Z,63.24
2022-11-25T09:26:02.415Z,64.60
2022-11-25T09:28:33.140Z,63.80
2022-11-25T09:31:09.280Z,65.12
2022-11-25T09:33:40.663Z,64.87
2022-11-25T09:36:13.045Z,65.67
2022-11-25T09:38:45.320Z,64.64
2022-11-25T09:41:42.619Z,62.37
2022-11-25T09:44:36.285Z,63.12
2022-11-25T09:47:09.922Z,60.94
2022-11-25T09:49:47.306Z,60.57
2022-11-25T09:52:23.384Z,65.63
2022-11-25T09:54:57.376Z,67.13
2022-11-25T09:57:30.770Z,66.16
2022-11-25T10:00:00.075Z,64.63
2022-11-25T10:02:34.652Z,63.53
2022-11-25T10:05:08.423Z,64.95
2022-11-25T10:07:40.909Z,63.01
2022-11-25T10:10:17.058Z,61.01
2022-11-25T10:12:49.017Z,62.00
2022-11-25T10:15:21.333Z,65.65
2022-11-25T10:17:53.473Z,66.68
2022-11-25T10:20:25.200Z,67.98
2022-11-25T10:22:56.703Z,67.25
2022-11-25T10:25:29.115Z,64.36
2022-11-25T10:28:01.321Z,64.99
2022-11-25T10:30:35.491Z,66.07
2022-11-25T10:33:11.149Z,64.02
2022-11-25T10:35:45.008Z,62.84
2022-11-25T10:38:21.032Z,64.14
2022-11-25T10:40:53.581Z,66.15
2022-11-25T10:43:28.697Z,65.83
2022-11-25T10:46:09.045Z,63.83
2022-11-25T10:48:53.907Z,66.48
2022-11-25T10:51:33.176Z,62.55
2022-11-25T10:54:14.732Z,64.72
2022-11-25T10:56:46.830Z,63.73
2022-11-25T10:59:23.291Z,63.84
2022-11-25T11:01:54.552Z,60.43
2022-11-25T11:04:25.237Z,60.61
2022-11-25T11:06:56.268Z,64.42
2022-11-25T11:09:34.314Z,64.38
2022-11-25T11:12:16.993Z,64.31
2022-11-25T11:14:47.742Z,63.01
2022-11-25T11:17:35.861Z,63.92
2022-11-25T11:20:21.284Z,62.70
2022-11-25T11:22:56.288Z,60.24
2022-11-25T11:25:31.749Z,60.49
2022-11-25T11:28:02.797Z,61.17
2022-11-25T11:30:34.257Z,65.31
2022-11-25T11:33:05.964Z,64.09
2022-11-25T11:35:51.985Z,61.96
2022-11-25T11:38:28.933Z,60.50
2022-11-25T11:41:04.086Z,59.57
2022-11-25T11:43:43.464Z,65.53
2022-11-25T11:46:21.463Z,66.28
2022-11-25T11:49:00.048Z,64.86
2022-11-25T11:51:34.528Z,63.95
2022-11-25T11:54:08.400Z,60.19
2022-11-25T11:56:41.321Z,60.82
2022-11-25T11:59:30.969Z,65.13
2022-11-25T12:02:07.287Z,68.20
2022-11-25T12:04:40.810Z,65.52
2022-11-25T12:07:09.782Z,62.01
2022-11-25T12:09:47.241Z,61.93
2022-11-25T12:12:19.515Z,63.55
2022-11-25T12:14:51.632Z,63.71
2022-11-25T12:17:31.832Z,64.63
2022-11-25T12:20:06.205Z,64.20
2022-11-25T12:22:39.806Z,62.58
2022-11-25T12:25:13.405Z,64.15
2022-11-25T12:27:47.602Z,63.02
2022-11-25T12:30:19.748Z,61.79
2022-11-25T12:32:58.330Z,59.86
2022-11-25T12:35:34.177Z,63.80
2022-11-25T12:38:06.587Z,67.71
2022-11-25T12:40:39.323Z,66.31
2022-11-25T12:43:17.263Z,60.39
2022-11-25T12:45:52.640Z,60.13
2022-11-25T12:48:23.398Z,63.77
2022-11-25T12:50:58.583Z,67.41
2022-11-25T12:53:32.029Z,67.36
2022-11-25T12:56:03.691Z,66.82
2022-11-25T12:58:50.749Z,65.88
2022-11-25T13:01:33.989Z,64.47
2022-11-25T13:04:18.077Z,60.11
2022-11-25T13:06:57.731Z,61.25
2022-11-25T13:09:34.654Z,66.59
2022-11-25T13:12:13.991Z,66.48
2022-11-25T13:15:04.216Z,64.96
2022-11-25T13:17:37.899Z,64.41
2022-11-25T13:20:40.323Z,62.17
2022-11-25T13:23:23.006Z,60.91
2022-11-25T13:25:54.473Z,59.62
2022-11-25T13:28:32.498Z,58.20
2022-11-25T13:31:23.617Z,59.07
2022-11-25T13:34:07.937Z,61.87
2022-11-25T13:36:49.007Z,67.24
2022-11-25T13:39:20.660Z,65.30
2022-11-25T13:42:00.196Z,63.02
2022-11-25T13:44:35.357Z,61.45
2022-11-25T13:47:31.009Z,60.44
2022-11-25T13:50:02.534Z,60.39
2022-11-25T13:52:35.276Z,58.20
2022-11-25T13:55:09.423Z,59.86
2022-11-25T13:57:41.867Z,63.24
2022-11-25T14:00:42.087Z,63.37
2022-11-25T14:03:26.336Z,61.72
2022-11-25T14:06:00.715Z,61.07
2022-11-25T14:08:38.698Z,60.80
2022-11-25T14:11:22.882Z,59.94
2022-11-25T14:14:09.017Z,58.02
2022-11-25T14:16:49.274Z,59.53
2022-11-25T14:19:51.118Z,63.81
2022-11-25T14:22:32.620Z,64.42
2022-11-25T14:25:06.455Z,62.76
2022-11-25T14:27:37.758Z,60.55
2022-11-25T14:30:10.924Z,60.59
2022-11-25T14:32:40.346Z,59.58
2022-11-25T14:35:16.222Z,58.12
2022-11-25T14:37:49.395Z,58.24
2022-11-25T14:40:22.625Z,59.76
2022-11-25T14:42:54.136Z,65.19
2022-11-25T14:45:26.077Z,66.01
2022-11-25T14:47:57.115Z,63.05
2022-11-25T14:50:35.621Z,61.17
2022-11-25T14:53:08.605Z,60.18
2022-11-25T14:55:40.268Z,57.61
2022-11-25T14:58:12.992Z,59.35
2022-11-25T15:00:52.764Z,61.71
2022-11-25T15:03:23.654Z,67.52
2022-11-25T15:05:57.319Z,68.06
2022-11-25T15:08:27.940Z,66.38
2022-11-25T15:11:00.178Z,64.75
2022-11-25T15:13:34.436Z,63.46
2022-11-25T15:16:08.372Z,62.68
2022-11-25T15:18:39.696Z,62.41
2022-11-25T15:21:15.272Z,60.83
2022-11-25T15:23:46.112Z,59.35
2022-11-25T15:26:19.866Z,61.10
2022-11-25T15:28:54.705Z,65.35
2022-11-25T15:31:27.529Z,65.99
2022-11-25T15:33:58.982Z,64.35
2022-11-25T15:36:29.962Z,62.91
2022-11-25T15:39:13.874Z,62.58
2022-11-25T15:41:45.724Z,60.99
2022-11-25T15:44:21.801Z,61.72
2022-11-25T15:46:54.360Z,61.76
2022-11-25T15:49:25.384Z,60.73
2022-11-25T15:51:58.134Z,60.99
2022-11-25T15:54:30.403Z,61.09
2022-11-25T15:57:03.746Z,60.50
2022-11-25T15:59:47.286Z,59.98
2022-11-25T16:02:16.405Z,60.26
2022-11-25T16:04:47.097Z,64.98
2022-11-25T16:07:23.834Z,65.57
2022-11-25T16:09:54.514Z,65.65
2022-11-25T16:12:25.128Z,64.60
2022-11-25T16:14:56.168Z,63.67
2022-11-25T16:17:27.111Z,63.44
2022-11-25T16:19:57.948Z,62.92
2022-11-25T16:22:30.426Z,62.31
2022-11-25T16:25:02.939Z,61.64
2022-11-25T16:27:38.763Z,61.30
2022-11-25T16:30:18.849Z,59.54
2022-11-25T16:32:50.002Z,59.96
2022-11-25T16:35:22.315Z,61.89
2022-11-25T16:37:53.158Z,66.40
2022-11-25T16:40:24.616Z,64.84
2022-11-25T16:42:55.131Z,62.05
2022-11-25T16:45:27.386Z,60.90
2022-11-25T16:47:57.933Z,60.28
2022-11-25T16:50:28.987Z,58.28
2022-11-25T16:52:59.591Z,60.10
2022-11-25T16:55:31.764Z,61.38
2022-11-25T16:58:02.576Z,65.98
2022-11-25T17:00:33.332Z,67.62
2022-11-25T17:03:04.201Z,65.02
2022-11-25T17:05:36.124Z,62.32
2022-11-25T17:08:07.386Z,60.83
2022-11-25T17:10:38.896Z,60.62
2022-11-25T17:13:15.514Z,59.69
2022-11-25T17:15:46.592Z,58.04
2022-11-25T17:18:19.594Z,58.87
2022-11-25T17:20:50.262Z,61.79
2022-11-25T17:23:23.033Z,66.61
2022-11-25T17:25:55.764Z,66.25
2022-11-25T17:28:26.604Z,63.43
2022-11-25T17:30:57.498Z,61.47
2022-11-25T17:33:28.470Z,59.96
2022-11-25T17:35:59.185Z,57.75
2022-11-25T17:38:29.889Z,58.71
2022-11-25T17:41:00.730Z,61.09
2022-11-25T17:43:34.608Z,65.53
2022-11-25T17:46:05.391Z,65.83
2022-11-25T17:48:36.432Z,62.94
2022-11-25T17:51:07.903Z,60.76
2022-11-25T17:53:40.194Z,58.53
2022-11-25T17:56:20.184Z,57.86
2022-11-25T17:58:51.426Z,61.30
2022-11-25T18:01:22.826Z,66.67
2022-11-25T18:03:54.634Z,66.60
2022-11-25T18:06:25.362Z,63.27
2022-11-25T18:08:56.111Z,61.53
2022-11-25T18:11:26.628Z,60.68
2022-11-25T18:13:57.673Z,60.18
2022-11-25T18:16:29.760Z,58.50
2022-11-25T18:19:00.815Z,60.57
2022-11-25T18:21:31.603Z,64.57
2022-11-25T18:24:02.296Z,63.23
2022-11-25T18:26:34.712Z,61.29
2022-11-25T18:29:09.199Z,60.73
2022-11-25T18:31:40.436Z,62.03
2022-11-25T18:34:15.240Z,61.35
2022-11-25T18:36:46.293Z,61.66
2022-11-25T18:39:17.090Z,60.64
2022-11-25T18:41:48.216Z,60.58
2022-11-25T18:44:25.855Z,60.46
2022-11-25T18:47:10.734Z,60.20
2022-11-25T18:49:41.822Z,59.15
2022-11-25T18:52:12.823Z,60.13
2022-11-25T18:54:43.395Z,65.32
2022-11-25T18:57:15.050Z,66.49
2022-11-25T18:59:56.062Z,64.59
2022-11-25T19:02:31.020Z,61.92
2022-11-25T19:05:01.789Z,61.81
2022-11-25T19:07:32.768Z,60.96
2022-11-25T19:10:03.464Z,60.60
2022-11-25T19:12:34.316Z,60.05
2022-11-25T19:15:05.045Z,58.50
2022-11-25T19:17:36.071Z,60.43
2022-11-25T19:20:14.252Z,65.08
2022-11-25T19:22:45.075Z,65.19
2022-11-25T19:25:16.195Z,64.01
2022-11-25T19:27:48.274Z,62.63
2022-11-25T19:30:19.938Z,62.72
2022-11-25T19:32:52.544Z,63.27
2022-11-25T19:35:26.486Z,61.70
2022-11-25T19:37:57.496Z,61.75
2022-11-25T19:40:34.710Z,61.33
2022-11-25T19:43:09.412Z,59.26
2022-11-25T19:45:40.351Z,60.50
2022-11-25T19:48:16.373Z,65.14
2022-11-25T19:50:47.808Z,67.64
2022-11-25T19:53:19.827Z,65.79
2022-11-25T19:55:50.451Z,64.14
2022-11-25T19:58:22.367Z,61.68
2022-11-25T20:00:52.989Z,61.38
2022-11-25T20:03:25.388Z,61.43
2022-11-25T20:05:56.046Z,61.06
2022-11-25T20:08:27.969Z,60.55
2022-11-25T20:10:58.708Z,59.97
2022-11-25T20:13:29.369Z,58.37
2022-11-25T20:16:00.306Z,60.19
2022-11-25T20:18:31.132Z,65.05
2022-11-25T20:21:03.200Z,65.19
2022-11-25T20:23:38.635Z,63.18
2022-11-25T20:26:16.452Z,61.33
2022-11-25T20:28:47.606Z,61.43
2022-11-25T20:31:18.282Z,60.08
2022-11-25T20:33:50.050Z,59.95
2022-11-25T20:36:23.309Z,64.73
2022-11-25T20:38:56.257Z,67.01
2022-11-25T20:41:28.250Z,65.11
2022-11-25T20:43:59.261Z,63.88
2022-11-25T20:46:30.922Z,61.29
2022-11-25T20:49:03.627Z,59.81
2022-11-25T20:51:34.326Z,59.61
2022-11-25T20:54:09.445Z,63.78
2022-11-25T20:56:40.464Z,64.68
2022-11-25T20:59:16.808Z,64.64
2022-11-25T21:01:48.457Z,63.24
2022-11-25T21:04:19.675Z,61.77
2022-11-25T21:06:50.299Z,61.57
2022-11-25T21:09:23.551Z,59.61
2022-11-25T21:11:54.084Z,60.58
2022-11-25T21:14:25.229Z,64.73
2022-11-25T21:16:56.405Z,65.08
2022-11-25T21:19:27.463Z,63.17
2022-11-25T21:21:58.308Z,62.06
2022-11-25T21:24:31.774Z,60.82
2022-11-25T21:27:03.383Z,60.75
2022-11-25T21:29:34.436Z,60.76
2022-11-25T21:32:07.621Z,60.14
2022-11-25T21:34:39.683Z,58.40
2022-11-25T21:37:11.808Z,59.49
2022-11-25T21:39:42.840Z,62.78
2022-11-25T21:42:18.183Z,66.48
2022-11-25T21:44:50.447Z,65.14
2022-11-25T21:47:21.530Z,61.98
2022-11-25T21:49:52.477Z,61.06
2022-11-25T21:52:23.251Z,61.87
2022-11-25T21:54:54.608Z,61.42
2022-11-25T21:57:28.411Z,60.70
2022-11-25T21:59:59.163Z,60.33
2022-11-25T22:02:30.140Z,58.61
2022-11-25T22:05:01.423Z,58.65
2022-11-25T22:07:32.117Z,61.02
2022-11-25T22:10:07.044Z,66.35
2022-11-25T22:12:41.353Z,66.71
2022-11-25T22:15:15.953Z,64.10
2022-11-25T22:17:46.966Z,61.90
2022-11-25T22:20:23.371Z,60.67
2022-11-25T22:22:54.237Z,59.93
2022-11-25T22:25:26.291Z,58.95
2022-11-25T22:27:57.378Z,59.98
2022-11-25T22:30:28.278Z,62.96
2022-11-25T22:33:01.810Z,67.19
2022-11-25T22:35:32.750Z,65.44
2022-11-25T22:38:03.618Z,62.63
2022-11-25T22:40:34.223Z,61.30
2022-11-25T22:43:06.898Z,59.85
2022-11-25T22:45:38.025Z,58.53
2022-11-25T22:48:16.099Z,60.99
2022-11-25T22:50:47.180Z,66.17
2022-11-25T22:53:20.654Z,65.63
2022-11-25T22:55:51.698Z,64.00
2022-11-25T22:58:22.147Z,62.17
2022-11-25T23:00:53.639Z,61.58
2022-11-25T23:03:26.831Z,60.32
2022-11-25T23:05:58.036Z,59.98
2022-11-25T23:08:29.606Z,59.38
2022-11-25T23:11:00.128Z,58.30
2022-11-25T23:13:30.662Z,61.30
2022-11-25T23:16:02.110Z,65.84
2022-11-25T23:18:38.411Z,65.27
2022-11-25T23:21:16.173Z,63.60
2022-11-25T23:23:47.157Z,62.28
2022-11-25T23:26:18.543Z,60.90
2022-11-25T23:28:49.582Z,59.91
2022-11-25T23:31:21.619Z,58.10
2022-11-25T23:33:52.846Z,60.71
2022-11-25T23:36:25.405Z,65.54
2022-11-25T23:38:56.902Z,65.98
2022-11-25T23:41:28.774Z,63.63
2022-11-25T23:43:59.927Z,62.40
2022-11-25T23:46:33.663Z,61.93
2022-11-25T23:49:04.970Z,61.34
2022-11-25T23:51:35.801Z,60.82
2022-11-25T23:54:06.484Z,58.80
2022-11-25T23:56:38.416Z,60.19
2022-11-25T23:59:12.478Z,61.40
